Saint Louis, Missouri
Traffic Map
Current Weather Conditions
Saint Louis, Missouri
Clear
Clear
20°
Feels Like: 20°
Wind Chill: 20° Ceiling: Unl
Heat Index: 20° Visibility: 10mi
Dew Point: Wind: 10mph
Humidity: 45% Direction: 350° (N)
Pressure: 30.11in Gusts: 0mph
Raw Report DataKCPS 211953Z 35009KT 10SM CLR 20/08 A3011 RMK AO2 SLP195 T02000078
Traffic Incident Summary
Active as of:
Severity:
Category:
InformationThere was an issue retrieving the traffic information for this location. Please try a different location or try again shortly.
Advertisements
Track Severe Weather on mobile